Time;durP1;ratioP1;P1;durP2;ratioP2;P2;SDS_P1;SDS_P2;PMS_P1;PMS_P2;Temp;Humidity;BMP_temperature;BMP_pressure;BME280_temperature;BME280_humidity;BME280_pressure;Samples;Min_cycle;Max_cycle;Signal;HPM_P1;HPM_P2
2022/04/20 00:01:05;;;;;;;5.53;2.13;;;8.70;99.90;;;;;;5091407;28;20044;-61
2022/04/20 00:03:31;;;;;;;5.50;2.08;;;;;;;;;;5091974;28;20047;-61
2022/04/20 00:05:57;;;;;;;4.32;2.20;;;8.80;99.90;;;;;;5092487;28;20093;-61
2022/04/20 00:08:23;;;;;;;6.43;2.60;;;8.80;99.90;;;;;;5095638;28;20052;-61
2022/04/20 00:10:48;;;;;;;5.45;2.63;;;8.80;99.90;;;;;;5094060;28;20059;-61
2022/04/20 00:13:14;;;;;;;6.72;2.58;;;8.60;99.90;;;;;;5094504;28;20036;-61
2022/04/20 00:15:40;;;;;;;5.88;2.10;;;9.00;99.90;;;;;;5095081;28;20044;-61
2022/04/20 00:18:08;;;;;;;6.28;2.60;;;;;;;;;;5095136;28;20064;-61
2022/04/20 00:20:34;;;;;;;5.90;2.58;;;8.50;99.90;;;;;;5094323;28;20092;-61
2022/04/20 00:22:59;;;;;;;6.22;2.85;;;8.60;99.90;;;;;;5093709;28;20496;-61
2022/04/20 00:25:25;;;;;;;5.82;2.10;;;;;;;;;;5094431;28;20062;-60
2022/04/20 00:27:51;;;;;;;5.38;1.90;;;;;;;;;;5094664;28;20071;-61
2022/04/20 00:30:17;;;;;;;5.88;2.67;;;8.40;99.90;;;;;;5094975;28;20042;-61
2022/04/20 00:32:42;;;;;;;4.78;2.40;;;8.60;99.90;;;;;;5093953;28;20067;-61
2022/04/20 00:35:12;;;;;;;5.05;2.47;;;8.40;99.90;;;;;;5094945;28;20032;-61
2022/04/20 00:37:41;;;;;;;7.22;2.72;;;8.50;99.90;;;;;;5095075;28;20039;-60
2022/04/20 00:40:09;;;;;;;7.32;2.67;;;;;;;;;;5094058;28;20067;-60
2022/04/20 00:42:38;;;;;;;6.75;2.55;;;8.10;99.90;;;;;;5094528;28;20171;-61
2022/04/20 00:45:04;;;;;;;8.05;2.85;;;8.80;99.90;;;;;;5094490;28;20048;-61
2022/04/20 00:47:31;;;;;;;5.15;2.53;;;8.30;99.90;;;;;;5092668;28;20036;-61
2022/04/20 00:49:57;;;;;;;6.13;2.33;;;;;;;;;;5076630;28;20044;-61
2022/04/20 00:52:23;;;;;;;5.35;2.42;;;;;;;;;;5094826;28;20040;-61
2022/04/20 00:54:49;;;;;;;6.32;3.03;;;;;;;;;;5092712;28;20098;-61
2022/04/20 00:57:15;;;;;;;5.60;2.60;;;8.20;99.90;;;;;;5094413;28;20039;-61
2022/04/20 00:59:41;;;;;;;6.63;2.70;;;8.20;99.90;;;;;;5093388;28;20071;-61
2022/04/20 01:02:07;;;;;;;9.23;3.03;;;8.00;99.90;;;;;;5093626;28;20437;-61
2022/04/20 01:04:33;;;;;;;5.18;2.53;;;8.00;99.90;;;;;;5094341;28;20072;-61
2022/04/20 01:07:00;;;;;;;6.53;2.85;;;8.30;99.90;;;;;;5094285;28;20083;-61
2022/04/20 01:09:26;;;;;;;6.13;3.38;;;8.00;99.90;;;;;;5092228;28;20513;-61
2022/04/20 01:11:54;;;;;;;8.25;2.88;;;8.00;99.90;;;;;;5092751;28;20404;-60
2022/04/20 01:14:20;;;;;;;6.85;2.83;;;8.10;99.90;;;;;;5094523;28;20051;-61
2022/04/20 01:16:45;;;;;;;6.97;3.03;;;7.30;99.90;;;;;;5091698;28;20106;-60
2022/04/20 01:19:11;;;;;;;8.40;3.20;;;7.80;99.90;;;;;;5094092;28;20054;-61
2022/04/20 01:21:36;;;;;;;6.90;2.78;;;7.50;99.90;;;;;;5092354;28;20067;-61
2022/04/20 01:24:02;;;;;;;6.68;2.63;;;7.70;99.90;;;;;;5093325;28;20142;-61
2022/04/20 01:26:28;;;;;;;6.65;2.88;;;7.60;99.90;;;;;;5094093;28;20028;-60
2022/04/20 01:28:55;;;;;;;4.95;2.72;;;8.30;99.90;;;;;;5092612;28;21089;-61
2022/04/20 01:31:21;;;;;;;7.93;2.88;;;7.60;99.90;;;;;;5094176;28;20400;-61
2022/04/20 01:33:46;;;;;;;7.40;3.03;;;7.70;99.90;;;;;;5093788;28;20110;-61
2022/04/20 01:36:12;;;;;;;6.85;2.60;;;7.50;99.90;;;;;;5092940;28;20039;-61
2022/04/20 01:38:39;;;;;;;8.45;3.05;;;7.50;99.90;;;;;;5093648;28;20035;-60
2022/04/20 01:41:05;;;;;;;5.85;2.90;;;7.40;99.90;;;;;;5093453;28;20036;-61
2022/04/20 01:43:31;;;;;;;5.13;2.63;;;7.50;99.90;;;;;;5092809;28;20032;-60
2022/04/20 01:45:57;;;;;;;6.72;3.00;;;7.40;99.90;;;;;;5092460;28;20476;-61
2022/04/20 01:48:23;;;;;;;5.43;2.30;;;7.40;99.90;;;;;;5093567;28;20089;-61
2022/04/20 01:53:33;;;;;;;6.28;2.90;;;;;;;;;;5093152;28;20483;-60
2022/04/20 01:56:00;;;;;;;6.63;2.90;;;;;;;;;;5092101;28;20056;-60
2022/04/20 01:58:27;;;;;;;5.47;2.60;;;7.10;99.90;;;;;;5091741;28;20127;-60
2022/04/20 02:00:53;;;;;;;7.30;3.20;;;;;;;;;;5093045;28;20070;-60
2022/04/20 02:03:19;;;;;;;7.53;3.35;;;7.10;99.90;;;;;;5091960;28;20540;-60
2022/04/20 02:05:44;;;;;;;6.97;3.20;;;7.20;99.90;;;;;;5092395;28;20111;-60
2022/04/20 02:08:10;;;;;;;6.45;3.17;;;7.10;99.90;;;;;;5092929;28;20502;-61
2022/04/20 02:10:36;;;;;;;8.52;3.33;;;7.20;99.90;;;;;;5091806;28;20052;-61
2022/04/20 02:13:02;;;;;;;6.07;2.42;;;;;;;;;;5074376;28;20048;-61
2022/04/20 02:15:28;;;;;;;6.28;3.05;;;;;;;;;;5093212;28;20396;-60
2022/04/20 02:17:54;;;;;;;5.32;2.90;;;;;;;;;;5092070;28;20473;-60
2022/04/20 02:20:20;;;;;;;6.43;2.75;;;;;;;;;;5091906;28;20048;-60
2022/04/20 02:22:46;;;;;;;6.45;2.78;;;;;;;;;;5091469;28;20093;-60
2022/04/20 02:25:12;;;;;;;6.07;3.00;;;;;;;;;;5090979;28;20123;-60
2022/04/20 02:27:38;;;;;;;8.13;3.08;;;;;;;;;;5090842;28;20403;-60
2022/04/20 02:30:05;;;;;;;6.47;3.15;;;6.80;99.90;;;;;;5091511;28;20040;-60
2022/04/20 02:32:31;;;;;;;9.27;3.58;;;;;;;;;;5091797;28;20040;-61
2022/04/20 02:34:57;;;;;;;7.20;3.05;;;6.70;99.90;;;;;;5092612;28;20504;-61
2022/04/20 02:37:23;;;;;;;7.95;4.35;;;6.70;99.90;;;;;;5092790;28;20047;-60
2022/04/20 02:39:49;;;;;;;6.30;3.03;;;6.60;99.90;;;;;;5091971;28;20032;-61
2022/04/20 02:42:16;;;;;;;5.97;2.90;;;6.50;99.90;;;;;;5092440;28;20044;-60
2022/04/20 02:44:43;;;;;;;7.35;4.10;;;6.60;99.90;;;;;;5092359;28;20424;-61
2022/04/20 02:47:09;;;;;;;6.40;3.38;;;6.60;99.90;;;;;;5091535;28;20032;-61
2022/04/20 02:49:35;;;;;;;7.68;3.33;;;7.30;99.90;;;;;;5091217;28;20089;-61
2022/04/20 02:52:01;;;;;;;8.93;2.92;;;;;;;;;;5092255;28;20097;-60
2022/04/20 02:54:30;;;;;;;6.45;3.70;;;;;;;;;;5091997;28;20035;-61
2022/04/20 02:56:56;;;;;;;5.53;3.00;;;6.50;99.90;;;;;;5091024;28;20118;-60
2022/04/20 02:59:22;;;;;;;5.97;3.33;;;6.60;99.90;;;;;;5091201;28;20147;-60
2022/04/20 03:01:48;;;;;;;10.32;3.85;;;;;;;;;;5091275;28;20040;-61
2022/04/20 03:04:14;;;;;;;6.13;2.75;;;6.50;99.90;;;;;;5092198;28;20119;-60
2022/04/20 03:06:39;;;;;;;8.10;3.88;;;6.60;99.90;;;;;;5090829;28;20067;-60
2022/04/20 03:09:05;;;;;;;7.15;3.70;;;6.50;99.90;;;;;;5091253;28;20044;-60
2022/04/20 03:11:31;;;;;;;7.22;3.50;;;6.50;99.90;;;;;;5090877;28;20570;-61
2022/04/20 03:13:56;;;;;;;7.50;3.60;;;6.60;99.90;;;;;;5090798;28;20040;-61
2022/04/20 03:16:22;;;;;;;7.85;3.53;;;6.50;99.90;;;;;;5091559;28;20404;-60
2022/04/20 03:18:48;;;;;;;7.78;3.22;;;6.40;99.90;;;;;;5092033;28;20036;-60
2022/04/20 03:21:14;;;;;;;5.68;3.03;;;6.60;99.90;;;;;;5090088;28;20047;-61
2022/04/20 03:23:40;;;;;;;7.47;3.25;;;6.40;99.90;;;;;;5090739;28;20496;-60
2022/04/20 03:26:06;;;;;;;8.30;3.28;;;6.30;99.90;;;;;;5092116;28;20036;-60
2022/04/20 03:28:32;;;;;;;6.00;3.13;;;6.30;99.90;;;;;;5091303;28;20354;-60
2022/04/20 03:30:59;;;;;;;7.57;3.30;;;6.40;99.90;;;;;;5091767;28;20448;-60
2022/04/20 03:33:25;;;;;;;7.05;3.53;;;6.60;99.90;;;;;;5092248;28;20044;-60
2022/04/20 03:35:51;;;;;;;7.50;3.75;;;;;;;;;;5090737;28;20044;-60
2022/04/20 03:38:17;;;;;;;10.38;3.40;;;;;;;;;;5092664;28;20032;-60
2022/04/20 03:40:43;;;;;;;6.95;3.50;;;;;;;;;;5095977;28;20040;-62
2022/04/20 03:43:09;;;;;;;7.53;3.92;;;6.30;99.90;;;;;;5095174;28;20032;-63
2022/04/20 03:45:34;;;;;;;7.43;3.83;;;6.20;99.90;;;;;;5095638;28;20523;-62
2022/04/20 03:48:01;;;;;;;8.32;3.42;;;6.50;99.90;;;;;;5094370;28;20051;-62
2022/04/20 03:50:27;;;;;;;6.78;3.67;;;6.00;99.90;;;;;;5095219;28;20048;-62
2022/04/20 03:52:52;;;;;;;7.70;3.35;;;6.20;99.90;;;;;;5095494;28;20039;-62
2022/04/20 03:55:18;;;;;;;8.30;3.97;;;6.30;99.90;;;;;;5096150;28;20040;-62
2022/04/20 03:57:43;;;;;;;7.32;3.67;;;6.40;99.90;;;;;;5093697;28;20040;-62
2022/04/20 04:00:10;;;;;;;7.13;3.92;;;;;;;;;;5095475;28;20524;-62
2022/04/20 04:02:36;;;;;;;7.68;3.63;;;;;;;;;;5095393;28;20119;-62
2022/04/20 04:05:02;;;;;;;6.90;3.45;;;6.10;99.90;;;;;;5094570;28;20158;-62
2022/04/20 04:07:28;;;;;;;6.95;3.63;;;6.20;99.90;;;;;;5095658;28;20502;-62
2022/04/20 04:09:54;;;;;;;9.40;3.65;;;;;;;;;;5094846;28;20048;-62
2022/04/20 04:12:24;;;;;;;7.63;4.03;;;6.20;99.90;;;;;;5094858;28;20439;-62
2022/04/20 04:14:50;;;;;;;7.93;3.78;;;6.30;99.90;;;;;;5095223;28;20079;-62
2022/04/20 04:17:15;;;;;;;6.25;3.20;;;6.10;99.90;;;;;;5094170;28;20128;-62
2022/04/20 04:19:41;;;;;;;7.35;3.53;;;;;;;;;;5093361;28;20124;-62
2022/04/20 04:22:07;;;;;;;6.07;3.30;;;;;;;;;;5094128;28;20044;-62
2022/04/20 04:24:36;;;;;;;7.32;3.58;;;;;;;;;;5093143;28;20082;-63
2022/04/20 04:27:05;;;;;;;6.85;3.95;;;6.30;99.90;;;;;;5077132;28;20369;-62
2022/04/20 04:29:31;;;;;;;6.78;3.92;;;6.00;99.90;;;;;;5094945;28;20040;-62
2022/04/20 04:31:58;;;;;;;6.50;3.60;;;6.60;99.90;;;;;;5092905;28;20043;-62
2022/04/20 04:34:23;;;;;;;6.53;3.75;;;6.20;99.90;;;;;;5095467;28;20040;-63
2022/04/20 04:36:54;;;;;;;6.18;3.40;;;7.40;99.90;;;;;;5094905;28;20096;-62
2022/04/20 04:39:21;;;;;;;7.55;3.38;;;;;;;;;;5094417;28;20503;-62
2022/04/20 04:41:52;;;;;;;6.40;3.53;;;6.00;99.90;;;;;;5094701;28;20036;-62
2022/04/20 04:44:19;;;;;;;8.10;3.53;;;6.10;99.90;;;;;;5093611;28;20036;-62
2022/04/20 04:49:31;;;;;;;6.72;3.88;;;6.10;99.90;;;;;;5094595;28;20071;-62
2022/04/20 04:51:58;;;;;;;7.53;4.35;;;6.10;99.90;;;;;;5092602;28;20048;-62
2022/04/20 04:54:24;;;;;;;7.95;4.65;;;6.10;99.90;;;;;;5092867;28;20492;-60
2022/04/20 04:56:50;;;;;;;6.65;4.10;;;6.20;99.90;;;;;;5093213;28;20059;-60
2022/04/20 04:59:16;;;;;;;10.23;5.05;;;6.10;99.90;;;;;;5094281;28;20040;-60
2022/04/20 05:01:42;;;;;;;9.45;6.35;;;6.20;99.90;;;;;;5093527;28;20055;-60
2022/04/20 05:04:08;;;;;;;7.90;5.90;;;6.30;99.90;;;;;;5093154;28;20040;-60
2022/04/20 05:06:34;;;;;;;9.52;7.25;;;6.50;99.90;;;;;;5094311;28;20039;-60
2022/04/20 05:09:05;;;;;;;11.30;6.57;;;6.20;99.90;;;;;;5091875;28;20102;-60
2022/04/20 05:11:31;;;;;;;11.50;10.35;;;;;;;;;;5092769;28;20047;-60
2022/04/20 05:13:57;;;;;;;7.22;4.80;;;6.50;99.90;;;;;;5075415;28;20048;-60
2022/04/20 05:16:23;;;;;;;9.00;4.63;;;;;;;;;;5093154;28;20040;-60
2022/04/20 05:18:51;;;;;;;10.55;5.88;;;;;;;;;;5092740;28;20040;-60
2022/04/20 05:21:17;;;;;;;10.85;5.57;;;;;;;;;;5093463;28;20044;-60
2022/04/20 05:23:44;;;;;;;7.22;4.38;;;;;;;;;;5093972;28;20458;-60
2022/04/20 05:26:09;;;;;;;7.65;3.92;;;;;;;;;;5092439;28;20481;-60
2022/04/20 05:28:36;;;;;;;7.85;3.60;;;;;;;;;;5091872;28;20070;-60
2022/04/20 05:31:01;;;;;;;9.77;4.13;;;6.50;99.90;;;;;;5092480;28;20036;-60
2022/04/20 05:33:27;;;;;;;7.47;3.97;;;;;;;;;;5094142;28;20046;-60
2022/04/20 05:35:53;;;;;;;6.88;3.95;;;;;;;;;;5092755;28;20438;-60
2022/04/20 05:43:51;;;;;;;6.75;3.20;;;;;;;;;;5092765;28;20101;-62
2022/04/20 05:46:16;;;;;;;8.27;3.67;;;6.90;99.90;;;;;;5092775;28;20446;-62
2022/04/20 05:48:42;;;;;;;7.38;3.75;;;6.80;99.90;;;;;;5093884;28;20097;-62
2022/04/20 05:51:08;;;;;;;7.38;3.78;;;;;;;;;;5093088;28;20089;-62
2022/04/20 05:53:34;;;;;;;8.80;3.90;;;;;;;;;;5093612;28;20039;-62
2022/04/20 05:56:00;;;;;;;7.93;3.38;;;7.10;99.90;;;;;;5092496;28;20032;-62
2022/04/20 05:58:25;;;;;;;7.65;3.92;;;7.10;99.90;;;;;;5093804;28;20525;-62
2022/04/20 06:00:51;;;;;;;7.07;3.83;;;7.50;99.90;;;;;;5091795;28;20385;-62
2022/04/20 06:03:17;;;;;;;7.30;4.10;;;;;;;;;;5090228;28;20043;-62
2022/04/20 06:05:43;;;;;;;10.40;3.90;;;;;;;;;;5075186;28;20051;-62
2022/04/20 06:08:09;;;;;;;9.45;3.63;;;;;;;;;;5091568;28;20445;-62
2022/04/20 06:10:35;;;;;;;16.42;8.43;;;;;;;;;;5090812;28;20071;-63
2022/04/20 06:13:01;;;;;;;39.22;21.13;;;;;;;;;;5093157;28;20039;-62
2022/04/20 06:15:27;;;;;;;16.90;8.65;;;;;;;;;;5093166;28;20395;-62
2022/04/20 06:17:53;;;;;;;6.75;4.55;;;;;;;;;;5090947;28;20051;-62
2022/04/20 06:20:21;;;;;;;8.30;4.90;;;;;;;;;;5093149;28;20473;-62
2022/04/20 06:22:47;;;;;;;10.00;6.50;;;;;;;;;;5089830;28;20048;-62
2022/04/20 06:25:13;;;;;;;29.60;18.63;;;;;;;;;;5085680;28;20047;-62
2022/04/20 06:27:39;;;;;;;15.77;10.00;;;;;;;;;;5100619;28;20063;-62
2022/04/20 06:30:05;;;;;;;9.10;5.47;;;;;;;;;;5080737;28;20094;-62
2022/04/20 06:32:31;;;;;;;9.23;5.47;;;;;;;;;;5108207;28;20044;-62
2022/04/20 06:34:57;;;;;;;9.63;4.47;;;;;;;;;;5073971;28;20039;-62
2022/04/20 06:37:23;;;;;;;7.30;4.43;;;8.50;99.90;;;;;;5093438;28;20449;-62
2022/04/20 06:39:49;;;;;;;6.80;3.60;;;8.40;99.90;;;;;;5091086;28;20043;-62
2022/04/20 06:42:16;;;;;;;7.72;3.97;;;8.60;99.90;;;;;;5091985;28;20036;-62
2022/04/20 06:44:42;;;;;;;8.85;3.92;;;;;;;;;;5108924;28;20452;-62
2022/04/20 06:47:08;;;;;;;7.50;3.92;;;;;;;;;;5097044;28;20110;-62
2022/04/20 06:49:34;;;;;;;8.05;3.65;;;;;;;;;;5102881;28;20081;-63
2022/04/20 07:00:17;;;;;;;7.73;4.13;;;;;;;;;;5088645;28;20054;-63
2022/04/20 07:02:44;;;;;;;6.28;3.70;;;;;;;;;;5089184;28;20044;-63
2022/04/20 07:05:10;;;;;;;6.70;3.35;;;;;;;;;;5089816;28;20040;-63
2022/04/20 07:07:37;;;;;;;8.60;4.38;;;;;;;;;;5088351;28;20040;-62
2022/04/20 07:10:04;;;;;;;8.48;4.25;;;10.00;99.90;;;;;;5085950;28;20062;-62
2022/04/20 07:12:30;;;;;;;7.90;4.38;;;10.00;99.90;;;;;;5088681;28;20163;-62
2022/04/20 07:14:55;;;;;;;9.55;4.80;;;10.40;99.90;;;;;;5082862;28;20076;-63
2022/04/20 07:17:21;;;;;;;8.88;4.13;;;10.50;99.90;;;;;;5089261;28;20932;-63
2022/04/20 07:19:47;;;;;;;8.13;4.63;;;10.00;99.90;;;;;;5070773;28;20036;-63
2022/04/20 07:22:13;;;;;;;10.77;5.20;;;10.50;99.90;;;;;;5102103;28;20070;-63
2022/04/20 07:24:39;;;;;;;7.45;4.95;;;10.60;99.90;;;;;;5107329;28;20120;-62
2022/04/20 07:27:04;;;;;;;7.45;5.05;;;10.60;99.90;;;;;;5086779;28;20085;-62
2022/04/20 07:29:30;;;;;;;9.45;4.78;;;10.40;99.90;;;;;;5095866;28;20075;-63
2022/04/20 07:31:56;;;;;;;8.55;4.72;;;10.30;99.90;;;;;;5087891;28;20040;-62
2022/04/20 07:34:22;;;;;;;8.15;5.13;;;;;;;;;;5095074;28;20046;-63
2022/04/20 07:36:49;;;;;;;7.75;5.05;;;;;;;;;;5091906;28;20097;-63
2022/04/20 07:39:15;;;;;;;8.15;4.13;;;;;;;;;;5102988;28;20051;-62
2022/04/20 07:41:41;;;;;;;8.88;4.70;;;10.60;99.90;;;;;;5098925;28;20050;-62
2022/04/20 07:44:07;;;;;;;10.13;4.32;;;;;;;;;;5094323;28;20118;-63
2022/04/20 07:46:33;;;;;;;8.90;4.22;;;;;;;;;;5096967;28;20139;-63
2022/04/20 07:50:18;;;;;;;6.15;3.33;;;;;;;;;;5103481;28;20552;-63
2022/04/20 07:51:45;;;;;;;7.60;3.60;;;;;;;;;;5089279;28;20437;-63
2022/04/20 07:54:11;;;;;;;7.50;3.63;;;;;;;;;;5104088;28;20123;-63
2022/04/20 07:56:37;;;;;;;6.07;3.30;;;;;;;;;;5091858;28;20110;-63
2022/04/20 07:59:03;;;;;;;6.25;3.08;;;;;;;;;;5104894;28;20043;-63
2022/04/20 08:01:29;;;;;;;7.82;3.72;;;;;;;;;;5087878;28;20083;-63
2022/04/20 08:03:55;;;;;;;6.57;3.15;;;;;;;;;;5087181;28;20567;-60
2022/04/20 08:06:21;;;;;;;6.22;3.25;;;;;;;;;;5086789;28;20052;-60
2022/04/20 08:08:47;;;;;;;7.25;3.58;;;;;;;;;;5093023;28;20051;-61
2022/04/20 08:11:13;;;;;;;6.18;3.30;;;;;;;;;;5085219;28;20552;-60
2022/04/20 08:16:23;;;;;;;5.83;2.97;;;;;;;;;;5105620;28;20361;-60
2022/04/20 08:18:49;;;;;;;8.65;3.05;;;;;;;;;;5091454;28;20046;-59
2022/04/20 08:21:15;;;;;;;6.47;3.70;;;;;;;;;;5102149;28;20040;-60
2022/04/20 08:23:41;;;;;;;6.03;3.08;;;;;;;;;;5086640;28;20075;-59
2022/04/20 08:26:07;;;;;;;7.40;3.33;;;;;;;;;;5089286;28;20384;-60
2022/04/20 08:28:34;;;;;;;5.72;3.25;;;;;;;;;;5092404;28;20097;-59
2022/04/20 08:31:00;;;;;;;5.25;2.42;;;;;;;;;;5107367;28;20041;-60
2022/04/20 08:33:26;;;;;;;6.38;2.88;;;;;;;;;;5100512;28;20036;-59
2022/04/20 08:35:52;;;;;;;6.88;3.28;;;;;;;;;;5098746;28;20579;-59
2022/04/20 08:38:18;;;;;;;4.75;2.45;;;;;;;;;;5107289;28;20031;-59
2022/04/20 08:40:44;;;;;;;6.28;3.08;;;12.10;99.90;;;;;;5092915;28;20071;-59
2022/04/20 08:43:11;;;;;;;5.63;3.10;;;12.30;99.90;;;;;;5097630;28;20391;-60
2022/04/20 08:45:39;;;;;;;6.75;2.42;;;12.40;99.90;;;;;;5101236;28;20035;-59
2022/04/20 08:48:06;;;;;;;6.03;2.60;;;12.70;99.90;;;;;;5091028;28;20075;-59
2022/04/20 08:50:31;;;;;;;6.07;2.70;;;12.40;95.80;;;;;;5090439;28;20044;-60
2022/04/20 08:52:58;;;;;;;6.25;2.42;;;12.30;95.30;;;;;;5089855;28;20040;-59
2022/04/20 08:55:24;;;;;;;4.72;2.45;;;12.40;94.50;;;;;;5090166;28;20387;-59
2022/04/20 08:57:52;;;;;;;5.28;2.33;;;12.60;94.50;;;;;;5091322;28;20036;-60
2022/04/20 09:00:27;;;;;;;5.20;2.60;;;12.60;93.60;;;;;;5094006;28;20039;-59
2022/04/20 09:03:03;;;;;;;5.13;2.55;;;13.30;99.90;;;;;;5090407;28;20515;-59
2022/04/20 09:05:32;;;;;;;7.47;1.92;;;13.20;99.90;;;;;;5090319;28;20055;-59
2022/04/20 09:07:58;;;;;;;5.40;2.30;;;13.30;99.90;;;;;;5103850;28;20070;-59
2022/04/20 09:10:27;;;;;;;5.25;2.42;;;12.70;99.90;;;;;;5111631;28;20074;-59
2022/04/20 09:13:03;;;;;;;4.28;2.10;;;13.90;99.90;;;;;;5093067;28;20039;-59
2022/04/20 09:15:31;;;;;;;5.20;2.47;;;13.00;99.90;;;;;;5085144;28;20056;-59
2022/04/20 09:17:58;;;;;;;6.28;2.45;;;13.40;99.90;;;;;;5073991;28;20500;-60
2022/04/20 09:20:23;;;;;;;6.32;1.95;;;13.50;99.90;;;;;;5106977;28;20110;-59
2022/04/20 09:23:00;;;;;;;4.32;1.92;;;13.40;99.90;;;;;;5076728;28;20147;-59
2022/04/20 09:25:36;;;;;;;5.72;1.95;;;13.40;99.90;;;;;;5090739;28;20112;-59
2022/04/20 09:28:06;;;;;;;4.72;2.13;;;;;;;;;;5097215;28;20043;-59
2022/04/20 09:30:42;;;;;;;7.47;2.20;;;13.30;99.90;;;;;;5090873;28;20097;-61
2022/04/20 09:33:10;;;;;;;4.15;1.63;;;13.60;99.70;;;;;;5092119;28;20055;-60
2022/04/20 09:35:49;;;;;;;4.10;2.03;;;13.50;99.90;;;;;;5104817;28;20058;-59
2022/04/20 09:38:18;;;;;;;6.43;2.70;;;13.60;99.90;;;;;;5091341;28;20051;-59
2022/04/20 09:40:44;;;;;;;5.13;1.83;;;13.80;98.60;;;;;;5089947;28;20051;-59
2022/04/20 09:43:15;;;;;;;4.57;1.83;;;14.40;98.10;;;;;;5106274;28;20040;-60
2022/04/20 09:45:41;;;;;;;3.75;1.40;;;;;;;;;;5089066;28;20043;-59
2022/04/20 09:51:13;;;;;;;4.13;1.20;;;;;;;;;;5091371;28;20056;-60
2022/04/20 09:53:40;;;;;;;3.55;1.38;;;;;;;;;;5089018;28;20050;-59
2022/04/20 09:56:20;;;;;;;4.50;1.60;;;;;;;;;;5072034;28;20090;-60
2022/04/20 09:58:46;;;;;;;3.92;1.30;;;;;;;;;;5090636;28;20044;-59
2022/04/20 10:01:27;;;;;;;3.55;1.60;;;;;;;;;;5089317;28;20093;-59
2022/04/20 10:03:54;;;;;;;3.50;1.48;;;;;;;;;;5100021;28;20560;-60
2022/04/20 10:06:19;;;;;;;3.60;1.20;;;14.10;65.80;;;;;;5107419;28;20130;-60
2022/04/20 10:08:45;;;;;;;3.17;1.30;;;14.40;66.30;;;;;;5094563;28;20531;-60
2022/04/20 10:11:13;;;;;;;3.63;1.20;;;14.30;67.90;;;;;;5096656;28;20039;-60
2022/04/20 10:13:39;;;;;;;2.40;1.27;;;15.10;66.10;;;;;;5109975;28;20039;-60
2022/04/20 10:16:09;;;;;;;2.97;1.00;;;14.50;66.70;;;;;;5105372;28;20085;-59
2022/04/20 10:18:39;;;;;;;3.40;1.23;;;15.00;68.20;;;;;;5089648;28;20101;-60
2022/04/20 10:21:15;;;;;;;2.55;1.08;;;14.80;70.00;;;;;;5106012;28;20042;-60
2022/04/20 10:23:49;;;;;;;3.88;1.10;;;14.30;66.30;;;;;;5088535;28;20404;-60
2022/04/20 10:26:17;;;;;;;4.97;1.60;;;14.40;61.90;;;;;;5090325;28;20032;-60
2022/04/20 10:28:54;;;;;;;3.63;1.38;;;14.70;68.50;;;;;;5090377;28;20058;-60
2022/04/20 10:31:27;;;;;;;3.28;1.40;;;15.20;68.30;;;;;;5071499;28;20040;-60
2022/04/20 10:33:53;;;;;;;3.75;1.42;;;14.40;62.50;;;;;;5089320;28;20135;-60
2022/04/20 10:36:32;;;;;;;3.58;1.67;;;14.60;62.30;;;;;;5089971;28;20075;-60
2022/04/20 10:39:22;;;;;;;3.05;1.23;;;14.40;61.10;;;;;;5086453;28;20122;-59
2022/04/20 10:42:15;;;;;;;4.30;1.50;;;14.50;61.60;;;;;;5101215;28;20354;-60
2022/04/20 10:45:05;;;;;;;3.90;1.52;;;14.70;62.10;;;;;;5096592;28;20050;-60
2022/04/20 10:47:42;;;;;;;4.30;1.88;;;14.80;60.20;;;;;;5088640;28;20488;-60
2022/04/20 10:50:16;;;;;;;3.97;1.38;;;14.80;60.80;;;;;;5088733;28;20047;-59
2022/04/20 10:52:57;;;;;;;2.95;1.25;;;14.90;61.00;;;;;;5089600;28;20052;-60
2022/04/20 10:55:30;;;;;;;3.65;1.67;;;15.40;60.60;;;;;;5088278;28;20440;-60
2022/04/20 10:57:56;;;;;;;3.13;1.48;;;14.90;60.30;;;;;;5089233;28;20040;-60
2022/04/20 11:00:22;;;;;;;4.07;1.50;;;14.90;61.00;;;;;;5089414;28;20051;-60
2022/04/20 11:02:52;;;;;;;4.10;1.98;;;15.40;60.20;;;;;;5090016;28;20055;-60
2022/04/20 11:05:24;;;;;;;3.90;1.70;;;15.00;60.60;;;;;;5088776;28;20481;-60
2022/04/20 11:07:59;;;;;;;3.60;1.63;;;15.70;61.60;;;;;;5089172;28;20465;-60
2022/04/20 11:10:25;;;;;;;3.78;1.50;;;15.10;60.80;;;;;;5090162;28;20052;-60
2022/04/20 11:18:42;;;;;;;3.95;2.10;;;15.60;60.70;;;;;;5084733;28;20052;-60
2022/04/20 11:21:09;;;;;;;3.92;1.55;;;15.40;62.00;;;;;;5088141;28;20048;-60
2022/04/20 11:23:56;;;;;;;4.22;2.10;;;15.20;65.00;;;;;;5087748;28;20044;-60
2022/04/20 11:26:48;;;;;;;3.72;1.65;;;15.70;63.20;;;;;;5089033;28;20130;-60
2022/04/20 11:29:16;;;;;;;4.10;1.88;;;15.70;71.70;;;;;;5088545;28;20043;-61
2022/04/20 11:31:48;;;;;;;4.20;1.88;;;15.70;74.30;;;;;;5088138;28;20048;-59
2022/04/20 11:34:16;;;;;;;4.32;2.08;;;15.30;60.80;;;;;;5087297;28;20056;-59
2022/04/20 11:36:46;;;;;;;2.95;1.50;;;15.80;60.80;;;;;;5088418;28;20564;-59
2022/04/20 11:39:14;;;;;;;3.47;1.60;;;;;;;;;;5087542;28;20044;-59
2022/04/20 11:41:48;;;;;;;3.38;1.75;;;15.50;61.90;;;;;;5087056;28;20059;-60
2022/04/20 11:44:23;;;;;;;2.88;1.17;;;15.90;62.10;;;;;;5067134;28;20094;-59
2022/04/20 11:46:49;;;;;;;4.38;2.05;;;15.80;69.00;;;;;;5071966;28;20031;-60
2022/04/20 11:49:16;;;;;;;3.38;1.63;;;;;;;;;;5088092;28;20040;-60
2022/04/20 11:51:53;;;;;;;3.55;1.52;;;15.70;83.80;;;;;;5102057;28;20044;-60
2022/04/20 11:54:22;;;;;;;5.18;1.67;;;17.40;80.80;;;;;;5098971;28;20166;-61
2022/04/20 11:56:48;;;;;;;4.13;1.80;;;15.80;60.50;;;;;;5093571;28;20032;-60
2022/04/20 11:59:14;;;;;;;4.00;1.50;;;;;;;;;;5105655;28;20032;-60
2022/04/20 12:01:41;;;;;;;5.38;1.55;;;15.60;76.80;;;;;;5090613;28;20055;-60
2022/04/20 12:04:13;;;;;;;4.43;1.92;;;15.80;79.80;;;;;;5093465;28;20343;-60
2022/04/20 12:06:58;;;;;;;3.70;1.48;;;15.80;83.70;;;;;;5089726;28;20397;-60
2022/04/20 12:09:28;;;;;;;6.07;2.30;;;;;;;;;;5091740;28;20056;-60
2022/04/20 12:11:55;;;;;;;4.50;2.17;;;;;;;;;;5089226;28;20064;-60
2022/04/20 12:14:25;;;;;;;5.15;2.67;;;;;;;;;;5091121;28;20135;-60
2022/04/20 12:16:55;;;;;;;5.63;2.78;;;;;;;;;;5089308;28;20086;-60
2022/04/20 12:19:22;;;;;;;7.93;3.08;;;;;;;;;;5090877;28;20101;-60
2022/04/20 12:21:48;;;;;;;7.40;3.20;;;;;;;;;;5092646;28;20176;-60
2022/04/20 12:24:24;;;;;;;7.40;2.63;;;16.10;92.70;;;;;;5092300;28;20040;-60
2022/04/20 12:26:51;;;;;;;6.07;2.47;;;16.10;84.10;;;;;;5092205;28;20044;-60
2022/04/20 12:29:20;;;;;;;5.80;2.67;;;16.00;83.60;;;;;;5090352;28;20047;-60
2022/04/20 12:31:49;;;;;;;6.10;3.00;;;16.10;79.90;;;;;;5091076;28;20542;-60
2022/04/20 12:34:16;;;;;;;7.15;2.50;;;16.10;81.20;;;;;;5107811;28;20493;-60
2022/04/20 12:37:07;;;;;;;4.40;2.38;;;16.30;70.00;;;;;;5092027;28;20115;-60
2022/04/20 12:39:39;;;;;;;7.32;2.95;;;16.30;95.40;;;;;;5090619;28;20078;-60
2022/04/20 12:42:05;;;;;;;6.28;2.92;;;16.10;99.90;;;;;;5091577;28;20054;-60
2022/04/20 12:44:39;;;;;;;7.80;3.20;;;16.00;87.80;;;;;;5087180;28;20097;-60
2022/04/20 12:47:08;;;;;;;6.93;2.53;;;16.70;77.20;;;;;;5092413;28;20118;-60
2022/04/20 12:49:37;;;;;;;5.63;2.40;;;16.30;99.90;;;;;;5090651;28;20314;-60
2022/04/20 12:52:08;;;;;;;7.88;3.22;;;16.20;99.90;;;;;;5091443;28;20541;-60
2022/04/20 12:54:34;;;;;;;6.75;2.97;;;16.40;99.90;;;;;;5089578;28;20200;-60
2022/04/20 13:02:29;;;;;;;7.50;2.85;;;;;;;;;;5090233;28;20464;-60
2022/04/20 13:04:56;;;;;;;5.68;2.83;;;;;;;;;;5091883;28;20075;-60
2022/04/20 13:07:22;;;;;;;7.88;3.55;;;;;;;;;;5091266;28;20511;-60
2022/04/20 13:09:48;;;;;;;5.15;2.47;;;;;;;;;;5090775;28;20618;-60
2022/04/20 13:12:14;;;;;;;6.85;3.22;;;16.20;99.90;;;;;;5088620;28;20433;-60
2022/04/20 13:14:41;;;;;;;5.63;2.65;;;15.90;99.80;;;;;;5091772;28;20040;-60
2022/04/20 13:17:09;;;;;;;5.75;2.83;;;;;;;;;;5090473;28;20059;-60
2022/04/20 13:19:38;;;;;;;4.95;2.45;;;15.90;81.10;;;;;;5090172;28;20051;-60
2022/04/20 13:22:04;;;;;;;5.82;2.63;;;16.00;99.60;;;;;;5091651;28;20408;-60
2022/04/20 13:29:59;;;;;;;5.80;2.78;;;15.30;99.90;;;;;;5090354;28;20075;-60
2022/04/20 13:32:25;;;;;;;5.53;2.60;;;16.20;99.90;;;;;;5089569;28;20047;-60
2022/04/20 13:34:51;;;;;;;7.35;2.47;;;;;;;;;;5089022;28;20036;-60
2022/04/20 13:37:18;;;;;;;4.82;2.28;;;16.00;99.90;;;;;;5091183;28;20373;-60
2022/04/20 13:39:44;;;;;;;7.75;2.38;;;;;;;;;;5089995;28;20518;-60
2022/04/20 13:42:10;;;;;;;6.07;2.47;;;16.10;98.80;;;;;;5089600;28;20085;-60
2022/04/20 13:44:35;;;;;;;4.53;2.20;;;15.70;98.50;;;;;;5090237;28;20118;-60
2022/04/20 13:47:01;;;;;;;6.32;2.42;;;15.90;98.50;;;;;;5090993;28;20079;-60
2022/04/20 13:49:27;;;;;;;6.68;2.50;;;;;;;;;;5090050;28;20028;-60
2022/04/20 13:51:53;;;;;;;6.05;2.72;;;16.20;98.00;;;;;;5089343;28;20048;-60
2022/04/20 13:54:18;;;;;;;5.97;2.80;;;15.50;98.80;;;;;;5088494;28;20409;-60
2022/04/20 13:56:44;;;;;;;6.43;2.80;;;15.70;99.00;;;;;;5090466;28;20068;-60
2022/04/20 13:59:10;;;;;;;5.38;2.25;;;16.20;99.30;;;;;;5090706;28;20485;-60
2022/04/20 14:01:35;;;;;;;4.75;2.35;;;16.00;99.10;;;;;;5088875;28;20126;-60
2022/04/20 14:04:01;;;;;;;3.92;1.90;;;;;;;;;;5091060;28;20039;-60
2022/04/20 14:06:27;;;;;;;4.50;2.38;;;;;;;;;;5089068;28;20048;-60
2022/04/20 14:08:53;;;;;;;7.55;2.20;;;15.90;99.20;;;;;;5089063;28;20127;-60
2022/04/20 14:11:19;;;;;;;5.78;2.00;;;16.00;98.80;;;;;;5088580;28;20056;-60